Tuesday, July 25, 2017, 2:39 AM EDT

KFDK, Frederick, Frederick Municipal Airport

Location: Frederick, MD, United States Lat: 39.417
Local Time: 2:39 AM EDT ( 6:39 GMT) Lon: -77.374
Time Zone: US/Eastern Elev: 301 ft

Show me the last for .
Show Decoded

2017-07-25 02:05 METAR KFDK 250605Z AUTO 33008KT 10SM CLR 23/14 A3000 RMK AO2 LTG DSNT E =
2017-07-25 01:45 METAR KFDK 250545Z AUTO 32006KT 10SM CLR 23/14 A3000 RMK AO2 =
2017-07-25 01:25 METAR KFDK 250525Z AUTO 35008KT 10SM CLR 23/14 A2999 RMK AO2 LTG DSNT E =
2017-07-25 01:05 METAR KFDK 250505Z AUTO 35008KT 10SM CLR 23/15 A2999 RMK AO2 LTG DSNT E =
2017-07-25 00:45 METAR KFDK 250445Z AUTO 35006KT 10SM CLR 24/15 A2999 RMK AO2 LTG DSNT E =
2017-07-25 00:25 METAR KFDK 250425Z AUTO 34005KT 10SM CLR 24/16 A2998 RMK AO2 LTG DSNT E AND SE =
2017-07-25 00:05 METAR KFDK 250405Z AUTO 36004KT 10SM CLR 25/17 A2996 RMK AO2 =
2017-07-24 23:45 METAR KFDK 250345Z AUTO 36005KT 10SM CLR 25/17 A2995 RMK AO2 LTG DSNT E =
2017-07-24 23:25 METAR KFDK 250325Z AUTO 34006KT 10SM CLR 25/18 A2994 RMK AO2 LTG DSNT E =
2017-07-24 23:05 METAR KFDK 250305Z AUTO 32005KT 10SM CLR 25/21 A2994 RMK AO2 LTG DSNT E =
2017-07-24 22:45 METAR KFDK 250245Z AUTO 30005KT 10SM SCT100 23/23 A2993 RMK AO2 LTG DSNT E =
2017-07-24 22:25 METAR KFDK 250225Z AUTO 00000KT 10SM SCT100 23/23 A2993 RMK AO2 LTG DSNT E =
2017-07-24 22:05 METAR KFDK 250205Z AUTO 00000KT 10SM OVC090 23/23 A2992 RMK AO2 LTG DSNT E =
2017-07-24 21:45 METAR KFDK 250145Z AUTO 00000KT 10SM BKN090 BKN110 24/23 A2991 RMK AO2 LTG DSNT
                 E =
2017-07-24 21:25 METAR KFDK 250125Z AUTO 00000KT 10SM SCT100 24/23 A2990 RMK AO2 LTG DSNT E =
2017-07-24 21:05 METAR KFDK 250105Z AUTO 00000KT 10SM SCT100 25/23 A2989 RMK AO2 LTG DSNT E =
2017-07-24 19:55 METAR KFDK 242355Z 19007G19KT 7SM VCTS-RA SCT032 BKN050 BKN100 26/21 A2985 RMK
                 VSBY SE 2 =
2017-07-24 18:50 METAR KFDK 242250Z 21003KT 10SM BKN100 31/20 A2983 =
2017-07-24 17:53 METAR KFDK 242153Z 21005KT 10SM BKN120 31/19 A2982 =
2017-07-24 16:47 METAR KFDK 242047Z 19006KT 10SM SCT055 32/19 A2983 =
2017-07-24 15:47 METAR KFDK 241947Z 24006KT 10SM SCT050 SCT055 SCT100 32/18 A2984 =
2017-07-24 14:54 METAR KFDK 241854Z 28005KT 10SM BKN048 OVC055 32/18 A2985 =
2017-07-24 13:49 METAR KFDK 241749Z 29003KT 10SM SCT040 SCT050 31/19 A2986 RMK LTG DSNT E =
2017-07-24 12:48 METAR KFDK 241648Z 28006KT 10SM BKN038 BKN055 30/18 A2986 =
2017-07-24 11:47 METAR KFDK 241547Z 29004KT 10SM OVC036 28/19 A2986 =
2017-07-24 10:47 METAR KFDK 241447Z 31006KT 10SM SCT034 BKN043 BKN048 29/18 A2985 =
2017-07-24 09:47 METAR KFDK 241347Z 27005KT 10SM BKN030 BKN036 BKN041 28/19 A2985 RMK LTG DSNT E
                 =
2017-07-24 08:47 METAR KFDK 241247Z 32007KT 10SM SKC 27/19 A2985 RMK LTG DSNT E =
2017-07-24 07:50 METAR KFDK 241150Z 36006KT 10SM SKC 26/21 A2982 RMK LTG DSNT E SE =
2017-07-24 06:50 METAR KFDK 241050Z VRB03KT 10SM SKC 24/22 A2979 RMK LTG DSNT E =
2017-07-24 06:45 METAR KFDK 241045Z AUTO 31004KT 10SM CLR 23/22 A2979 RMK AO2 LTG DSNT E =
2017-07-24 06:25 METAR KFDK 241025Z AUTO 29007KT 10SM CLR 24/22 A2978 RMK AO2 LTG DSNT E =
2017-07-24 06:05 METAR KFDK 241005Z AUTO 27008KT 10SM CLR 24/23 A2978 RMK AO2 LTG DSNT SE AND NW
                 =
2017-07-24 05:45 METAR KFDK 240945Z AUTO 28009KT 10SM CLR 23/23 A2977 RMK AO2 LTG DSNT E =
2017-07-24 05:25 METAR KFDK 240925Z AUTO 28006KT 7SM SCT110 23/23 A2977 RMK AO2 LTG DSNT E =
2017-07-24 05:05 METAR KFDK 240905Z AUTO 25003KT 7SM SCT009 OVC110 23/23 A2977 RMK AO2 LTG DSNT E
                 =
2017-07-24 04:45 METAR KFDK 240845Z AUTO 00000KT 7SM OVC009 23/23 A2976 RMK AO2 LTG DSNT E =
2017-07-24 04:20 METAR KFDK 240820Z AUTO 00000KT 5SM BR OVC011 23/23 A2976 RMK AO2 =
2017-07-24 04:00 METAR KFDK 240800Z AUTO 00000KT 7SM SCT005 OVC013 23/23 A2976 RMK AO2 LTG DSNT E
                 =
2017-07-24 03:45 METAR KFDK 240745Z AUTO 00000KT 7SM SCT005 OVC013 23/23 A2977 RMK AO2 LTG DSNT E
                 =
2017-07-24 03:25 METAR KFDK 240725Z AUTO 00000KT 7SM OVC015 23/23 A2977 RMK AO2 LTG DSNT E =
2017-07-24 03:05 METAR KFDK 240705Z AUTO 00000KT 7SM BKN015 BKN022 BKN060 23/23 A2977 RMK AO2 LTG
                 DSNT E =
2017-07-24 02:45 METAR KFDK 240645Z AUTO 00000KT 7SM VCTS SCT017 BKN022 BKN060 23/23 A2978 RMK
                 AO2 LTG DSNT E =

Support USWX by starting your Amazon purchase here.